createdAt,value
2022-12-16T00:00:09.943Z,63.53
2022-12-16T00:02:36.994Z,59.17
2022-12-16T00:05:04.785Z,58.27
2022-12-16T00:07:31.872Z,61.40
2022-12-16T00:09:58.996Z,53.90
2022-12-16T00:12:26.102Z,54.53
2022-12-16T00:14:53.088Z,54.23
2022-12-16T00:17:21.893Z,58.30
2022-12-16T00:19:48.946Z,53.13
2022-12-16T00:22:15.930Z,58.40
2022-12-16T00:24:42.978Z,53.10
2022-12-16T00:27:10.825Z,54.10
2022-12-16T00:29:37.882Z,50.40
2022-12-16T00:32:06.418Z,61.37
2022-12-16T00:34:33.813Z,57.23
2022-12-16T00:37:01.010Z,58.03
2022-12-16T00:39:28.019Z,56.63
2022-12-16T00:41:54.983Z,48.00
2022-12-16T00:44:22.026Z,56.00
2022-12-16T00:46:49.029Z,57.13
2022-12-16T00:49:15.996Z,51.67
2022-12-16T00:51:42.977Z,61.03
2022-12-16T00:54:09.987Z,55.13
2022-12-16T00:56:37.052Z,52.63
2022-12-16T00:59:04.041Z,54.77
2022-12-16T01:01:31.169Z,50.73
2022-12-16T01:03:58.397Z,56.93
2022-12-16T01:06:25.449Z,59.20
2022-12-16T01:08:52.510Z,52.90
2022-12-16T01:11:22.043Z,54.73
2022-12-16T01:13:52.595Z,54.40
2022-12-16T01:16:22.515Z,58.47
2022-12-16T01:18:49.891Z,54.70
2022-12-16T01:21:17.001Z,60.57
2022-12-16T01:23:44.052Z,62.73
2022-12-16T01:26:16.685Z,61.50
2022-12-16T01:28:44.060Z,58.07
2022-12-16T01:31:12.494Z,59.53
2022-12-16T01:33:39.812Z,57.33
2022-12-16T01:36:08.994Z,62.67
2022-12-16T01:38:36.782Z,62.97
2022-12-16T01:41:05.600Z,63.27
2022-12-16T01:43:37.191Z,57.43
2022-12-16T01:46:19.057Z,56.50
2022-12-16T01:49:10.051Z,55.40
2022-12-16T01:51:50.484Z,62.40
2022-12-16T01:54:29.302Z,58.27
2022-12-16T01:57:02.718Z,57.37
2022-12-16T01:59:31.873Z,61.80
2022-12-16T02:01:59.937Z,55.23
2022-12-16T02:04:27.027Z,62.83
2022-12-16T02:06:54.890Z,58.03
2022-12-16T02:09:21.944Z,64.70
2022-12-16T02:12:00.976Z,63.17
2022-12-16T02:15:08.808Z,50.73
2022-12-16T02:17:47.218Z,54.77
2022-12-16T02:21:01.859Z,58.97
2022-12-16T02:23:58.552Z,58.97
2022-12-16T02:27:02.341Z,58.60
2022-12-16T02:30:07.855Z,54.07
2022-12-16T02:33:13.212Z,57.90
2022-12-16T02:35:56.809Z,60.67
2022-12-16T02:38:36.814Z,55.90
2022-12-16T02:41:06.896Z,56.37
2022-12-16T02:43:55.751Z,55.07
2022-12-16T02:46:30.879Z,61.30
2022-12-16T02:49:06.354Z,61.03
2022-12-16T02:51:37.413Z,61.13
2022-12-16T02:54:08.253Z,56.10
2022-12-16T02:57:13.701Z,52.87
2022-12-16T03:00:16.162Z,60.03
2022-12-16T03:03:04.125Z,55.10
2022-12-16T03:05:40.985Z,52.63
2022-12-16T03:08:17.137Z,56.63
2022-12-16T03:10:48.886Z,56.73
2022-12-16T03:13:19.906Z,54.67
2022-12-16T03:15:49.982Z,60.03
2022-12-16T03:18:19.027Z,57.03
2022-12-16T03:21:05.301Z,56.80
2022-12-16T03:23:42.448Z,57.10
2022-12-16T03:26:36.058Z,54.10
2022-12-16T03:29:35.992Z,54.27
2022-12-16T03:32:21.989Z,57.20
2022-12-16T03:35:20.936Z,53.97
2022-12-16T03:37:53.756Z,58.17
2022-12-16T03:40:21.726Z,51.30
2022-12-16T03:42:49.778Z,60.90
2022-12-16T03:45:24.403Z,61.07
2022-12-16T03:47:52.704Z,53.13
2022-12-16T03:50:25.538Z,54.80
2022-12-16T03:52:53.426Z,59.67
2022-12-16T03:55:20.420Z,55.50
2022-12-16T03:57:47.400Z,55.07
2022-12-16T04:00:15.256Z,54.17
2022-12-16T04:02:42.717Z,53.20
2022-12-16T04:05:10.590Z,50.37
2022-12-16T04:07:37.617Z,56.57
2022-12-16T04:10:06.028Z,57.97
2022-12-16T04:12:51.894Z,56.27
2022-12-16T04:15:37.489Z,51.30
2022-12-16T04:18:24.662Z,53.83
2022-12-16T04:21:14.587Z,57.30
2022-12-16T04:24:11.115Z,56.00
2022-12-16T04:27:13.572Z,55.40
2022-12-16T04:30:01.814Z,54.83
2022-12-16T04:32:49.908Z,64.00
2022-12-16T04:35:35.742Z,54.97
2022-12-16T04:38:21.781Z,57.13
2022-12-16T04:41:07.345Z,50.73
2022-12-16T04:43:53.476Z,58.17
2022-12-16T04:46:39.509Z,57.53
2022-12-16T04:49:25.170Z,58.80
2022-12-16T04:52:10.621Z,50.23
2022-12-16T04:54:56.074Z,59.47
2022-12-16T04:57:42.182Z,62.23
2022-12-16T05:00:28.588Z,59.80
2022-12-16T05:03:15.285Z,58.67
2022-12-16T05:06:01.655Z,62.83
2022-12-16T05:08:47.354Z,54.50
2022-12-16T05:11:33.074Z,58.40
2022-12-16T05:14:18.650Z,64.63
2022-12-16T05:17:04.413Z,65.43
2022-12-16T05:19:50.066Z,63.23
2022-12-16T05:22:35.923Z,63.13
2022-12-16T05:25:21.574Z,60.50
2022-12-16T05:28:13.308Z,60.73
2022-12-16T05:30:59.275Z,61.63
2022-12-16T05:33:44.812Z,63.30
2022-12-16T05:36:30.532Z,58.63
2022-12-16T05:39:16.427Z,59.63
2022-12-16T05:42:02.257Z,61.60
2022-12-16T05:44:47.692Z,66.90
2022-12-16T05:47:33.299Z,66.03
2022-12-16T05:50:18.995Z,64.20
2022-12-16T05:53:12.604Z,63.20
2022-12-16T05:55:58.317Z,68.70
2022-12-16T05:58:44.821Z,62.03
2022-12-16T06:01:30.758Z,72.93
2022-12-16T06:04:17.955Z,71.40
2022-12-16T06:07:03.907Z,67.77
2022-12-16T06:09:56.083Z,62.80
2022-12-16T06:12:42.421Z,63.53
2022-12-16T06:15:29.284Z,70.67
2022-12-16T06:18:15.217Z,67.13
2022-12-16T06:21:01.259Z,67.67
2022-12-16T06:23:47.227Z,67.90
2022-12-16T06:26:32.728Z,66.50
2022-12-16T06:29:18.551Z,72.27
2022-12-16T06:32:04.006Z,67.07
2022-12-16T06:34:49.540Z,66.63
2022-12-16T06:37:35.306Z,65.07
2022-12-16T06:40:21.857Z,67.43
2022-12-16T06:43:07.819Z,81.97
2022-12-16T06:45:57.784Z,68.37
2022-12-16T06:48:43.546Z,65.80
2022-12-16T06:51:29.385Z,71.03
2022-12-16T06:54:14.918Z,76.53
2022-12-16T06:57:00.733Z,67.30
2022-12-16T06:59:46.238Z,75.50
2022-12-16T07:02:32.407Z,70.70
2022-12-16T07:05:18.068Z,71.93
2022-12-16T07:08:10.671Z,75.57
2022-12-16T07:11:04.841Z,69.37
2022-12-16T07:14:01.618Z,70.20
2022-12-16T07:16:47.145Z,58.40
2022-12-16T07:19:32.828Z,76.07
2022-12-16T07:22:18.283Z,75.77
2022-12-16T07:25:04.085Z,65.13
2022-12-16T07:27:49.555Z,67.23
2022-12-16T07:30:35.130Z,71.07
2022-12-16T07:33:21.060Z,66.17
2022-12-16T07:36:06.476Z,70.50
2022-12-16T07:38:52.126Z,69.77
2022-12-16T07:41:37.617Z,71.47
2022-12-16T07:44:23.369Z,71.77
2022-12-16T07:47:09.223Z,73.70
2022-12-16T07:49:55.530Z,73.37
2022-12-16T07:52:42.128Z,73.70
2022-12-16T07:55:28.345Z,66.63
2022-12-16T07:58:13.901Z,68.23
2022-12-16T08:01:01.001Z,71.23
2022-12-16T08:03:49.303Z,67.23
2022-12-16T08:06:39.982Z,76.30
2022-12-16T08:09:26.057Z,63.97
2022-12-16T08:12:11.727Z,67.47
2022-12-16T08:15:04.833Z,65.97
2022-12-16T08:17:50.628Z,75.37
2022-12-16T08:20:38.228Z,66.57
2022-12-16T08:23:24.067Z,66.63
2022-12-16T08:26:09.443Z,71.67
2022-12-16T08:28:54.926Z,76.13
2022-12-16T08:31:40.771Z,70.93
2022-12-16T08:34:26.955Z,69.10
2022-12-16T08:37:12.810Z,68.97
2022-12-16T08:40:25.835Z,66.87
2022-12-16T08:43:09.297Z,66.80
2022-12-16T08:45:56.891Z,66.67
2022-12-16T08:48:42.753Z,65.00
2022-12-16T08:51:28.269Z,62.67
2022-12-16T08:54:13.972Z,64.40
2022-12-16T08:57:00.903Z,69.90
2022-12-16T08:59:46.446Z,78.53
2022-12-16T09:02:32.269Z,67.50
2022-12-16T09:05:22.507Z,61.40
2022-12-16T21:15:57.958Z,49.27
2022-12-16T21:18:43.998Z,50.93
2022-12-16T21:21:29.524Z,49.80
2022-12-16T21:24:15.440Z,50.07
2022-12-16T21:27:01.231Z,52.70
2022-12-16T21:29:46.750Z,48.97
2022-12-16T21:32:32.539Z,48.70
2022-12-16T21:35:18.447Z,48.77
2022-12-16T21:38:04.408Z,49.27
2022-12-16T21:41:09.676Z,50.93
2022-12-16T21:43:55.253Z,54.97
2022-12-16T21:46:42.355Z,48.47
2022-12-16T21:49:27.807Z,47.87
2022-12-16T21:52:13.417Z,52.30
2022-12-16T21:54:59.183Z,54.00
2022-12-16T21:57:44.977Z,55.70
2022-12-16T22:00:31.532Z,50.93
2022-12-16T22:03:17.288Z,53.87
2022-12-16T22:06:03.031Z,53.67
2022-12-16T22:08:48.902Z,56.93
2022-12-16T22:11:34.489Z,59.70
2022-12-16T22:14:20.096Z,54.03
2022-12-16T22:17:06.232Z,53.67
2022-12-16T22:19:51.740Z,54.90
2022-12-16T22:22:37.536Z,58.70
2022-12-16T22:25:24.127Z,53.70
2022-12-16T22:28:09.685Z,52.90
2022-12-16T22:30:56.163Z,47.43
2022-12-16T22:33:42.400Z,47.90
2022-12-16T22:36:31.900Z,47.83
2022-12-16T22:39:17.592Z,50.97
2022-12-16T22:42:03.118Z,45.07
2022-12-16T22:44:48.744Z,47.90
2022-12-16T22:47:34.588Z,54.73
2022-12-16T22:50:20.133Z,52.57
2022-12-16T22:53:05.952Z,52.53
2022-12-16T22:55:51.524Z,50.57
2022-12-16T22:58:37.938Z,49.17
2022-12-16T23:01:27.241Z,50.23
2022-12-16T23:04:12.852Z,49.73
2022-12-16T23:06:58.337Z,48.40
2022-12-16T23:09:43.916Z,45.73
2022-12-16T23:12:29.613Z,45.30
2022-12-16T23:15:29.496Z,50.27
2022-12-16T23:18:15.348Z,45.87
2022-12-16T23:21:09.861Z,48.47
2022-12-16T23:23:56.978Z,52.00
2022-12-16T23:26:42.825Z,46.47
2022-12-16T23:29:28.429Z,47.27
2022-12-16T23:32:14.197Z,46.43
2022-12-16T23:34:59.858Z,46.97
2022-12-16T23:37:45.421Z,49.33
2022-12-16T23:40:31.454Z,49.20
2022-12-16T23:43:17.268Z,47.53
2022-12-16T23:46:03.324Z,46.67
2022-12-16T23:48:48.932Z,43.43
2022-12-16T23:51:34.289Z,47.60
2022-12-16T23:54:19.873Z,51.00
2022-12-16T23:57:05.706Z,45.87
2022-12-16T23:59:51.668Z,46.33
